sensor_id;sensor_type;location;lat;lon;timestamp;P1;durP1;ratioP1;P2;durP2;ratioP2
23060;SDS011;11698;47.690;9.132;2023-03-12T00:00:39;9.23;;;6.13;;
23060;SDS011;11698;47.690;9.132;2023-03-12T00:03:05;8.57;;;6.18;;
23060;SDS011;11698;47.690;9.132;2023-03-12T00:05:31;8.70;;;5.93;;
23060;SDS011;11698;47.690;9.132;2023-03-12T00:07:58;8.05;;;6.05;;
23060;SDS011;11698;47.690;9.132;2023-03-12T00:10:24;7.60;;;5.50;;
23060;SDS011;11698;47.690;9.132;2023-03-12T00:12:51;8.55;;;6.15;;
23060;SDS011;11698;47.690;9.132;2023-03-12T00:15:17;8.13;;;5.90;;
23060;SDS011;11698;47.690;9.132;2023-03-12T00:17:43;8.07;;;5.43;;
23060;SDS011;11698;47.690;9.132;2023-03-12T00:20:10;10.07;;;5.65;;
23060;SDS011;11698;47.690;9.132;2023-03-12T00:22:36;9.40;;;5.83;;
23060;SDS011;11698;47.690;9.132;2023-03-12T00:25:02;8.53;;;5.87;;
23060;SDS011;11698;47.690;9.132;2023-03-12T00:27:28;8.55;;;5.57;;
23060;SDS011;11698;47.690;9.132;2023-03-12T00:29:54;8.00;;;6.00;;
23060;SDS011;11698;47.690;9.132;2023-03-12T00:32:20;9.20;;;6.20;;
23060;SDS011;11698;47.690;9.132;2023-03-12T00:34:50;9.77;;;6.00;;
23060;SDS011;11698;47.690;9.132;2023-03-12T00:37:16;9.85;;;6.32;;
23060;SDS011;11698;47.690;9.132;2023-03-12T00:39:42;9.10;;;6.13;;
23060;SDS011;11698;47.690;9.132;2023-03-12T00:42:08;9.13;;;6.30;;
23060;SDS011;11698;47.690;9.132;2023-03-12T00:44:34;10.63;;;6.55;;
23060;SDS011;11698;47.690;9.132;2023-03-12T00:47:00;8.95;;;6.35;;
23060;SDS011;11698;47.690;9.132;2023-03-12T00:49:26;10.05;;;6.30;;
23060;SDS011;11698;47.690;9.132;2023-03-12T00:51:52;10.35;;;6.57;;
23060;SDS011;11698;47.690;9.132;2023-03-12T00:54:18;8.25;;;6.05;;
23060;SDS011;11698;47.690;9.132;2023-03-12T00:56:44;10.02;;;6.35;;
23060;SDS011;11698;47.690;9.132;2023-03-12T00:59:11;9.07;;;5.78;;
23060;SDS011;11698;47.690;9.132;2023-03-12T01:01:37;9.05;;;5.72;;
23060;SDS011;11698;47.690;9.132;2023-03-12T01:04:03;8.27;;;5.68;;
23060;SDS011;11698;47.690;9.132;2023-03-12T01:06:29;8.60;;;5.55;;
23060;SDS011;11698;47.690;9.132;2023-03-12T01:08:55;9.00;;;5.97;;
23060;SDS011;11698;47.690;9.132;2023-03-12T01:11:21;9.10;;;5.65;;
23060;SDS011;11698;47.690;9.132;2023-03-12T01:13:47;8.88;;;6.20;;
23060;SDS011;11698;47.690;9.132;2023-03-12T01:16:14;8.55;;;5.97;;
23060;SDS011;11698;47.690;9.132;2023-03-12T01:18:40;8.48;;;5.57;;
23060;SDS011;11698;47.690;9.132;2023-03-12T01:21:06;8.65;;;5.63;;
23060;SDS011;11698;47.690;9.132;2023-03-12T01:23:32;6.30;;;4.40;;
23060;SDS011;11698;47.690;9.132;2023-03-12T01:25:58;6.00;;;4.67;;
23060;SDS011;11698;47.690;9.132;2023-03-12T01:28:24;5.73;;;4.03;;
23060;SDS011;11698;47.690;9.132;2023-03-12T01:30:51;5.78;;;3.75;;
23060;SDS011;11698;47.690;9.132;2023-03-12T01:33:18;5.28;;;3.50;;
23060;SDS011;11698;47.690;9.132;2023-03-12T01:35:46;5.20;;;3.15;;
23060;SDS011;11698;47.690;9.132;2023-03-12T01:38:13;4.55;;;3.08;;
23060;SDS011;11698;47.690;9.132;2023-03-12T01:40:40;4.15;;;2.92;;
23060;SDS011;11698;47.690;9.132;2023-03-12T01:43:48;5.22;;;3.08;;
23060;SDS011;11698;47.690;9.132;2023-03-12T01:48:24;4.78;;;3.50;;
23060;SDS011;11698;47.690;9.132;2023-03-12T01:50:50;5.57;;;3.23;;
23060;SDS011;11698;47.690;9.132;2023-03-12T01:53:16;4.87;;;3.20;;
23060;SDS011;11698;47.690;9.132;2023-03-12T01:55:42;4.82;;;2.90;;
23060;SDS011;11698;47.690;9.132;2023-03-12T01:58:08;3.90;;;2.90;;
23060;SDS011;11698;47.690;9.132;2023-03-12T02:00:35;4.47;;;2.88;;
23060;SDS011;11698;47.690;9.132;2023-03-12T02:03:02;3.85;;;2.63;;
23060;SDS011;11698;47.690;9.132;2023-03-12T02:05:31;4.38;;;2.50;;
23060;SDS011;11698;47.690;9.132;2023-03-12T02:07:58;3.70;;;2.60;;
23060;SDS011;11698;47.690;9.132;2023-03-12T02:10:24;3.03;;;2.22;;
23060;SDS011;11698;47.690;9.132;2023-03-12T02:12:51;4.50;;;2.50;;
23060;SDS011;11698;47.690;9.132;2023-03-12T02:15:17;3.53;;;2.37;;
23060;SDS011;11698;47.690;9.132;2023-03-12T02:17:43;3.72;;;2.70;;
23060;SDS011;11698;47.690;9.132;2023-03-12T02:22:43;3.67;;;2.60;;
23060;SDS011;11698;47.690;9.132;2023-03-12T02:27:37;3.90;;;2.53;;
23060;SDS011;11698;47.690;9.132;2023-03-12T02:30:03;3.90;;;2.58;;
23060;SDS011;11698;47.690;9.132;2023-03-12T02:32:32;3.92;;;2.40;;
23060;SDS011;11698;47.690;9.132;2023-03-12T02:34:59;2.75;;;2.35;;
23060;SDS011;11698;47.690;9.132;2023-03-12T02:37:25;3.08;;;2.42;;
23060;SDS011;11698;47.690;9.132;2023-03-12T02:39:56;2.95;;;2.40;;
23060;SDS011;11698;47.690;9.132;2023-03-12T02:42:24;4.20;;;2.60;;
23060;SDS011;11698;47.690;9.132;2023-03-12T02:44:51;2.57;;;2.30;;
23060;SDS011;11698;47.690;9.132;2023-03-12T02:47:17;4.57;;;2.80;;
23060;SDS011;11698;47.690;9.132;2023-03-12T02:49:43;2.83;;;2.28;;
23060;SDS011;11698;47.690;9.132;2023-03-12T02:52:10;4.38;;;2.65;;
23060;SDS011;11698;47.690;9.132;2023-03-12T02:54:36;3.83;;;2.53;;
23060;SDS011;11698;47.690;9.132;2023-03-12T02:57:02;2.45;;;1.95;;
23060;SDS011;11698;47.690;9.132;2023-03-12T02:59:28;3.85;;;2.58;;
23060;SDS011;11698;47.690;9.132;2023-03-12T03:01:55;4.55;;;2.85;;
23060;SDS011;11698;47.690;9.132;2023-03-12T03:04:22;3.35;;;2.50;;
23060;SDS011;11698;47.690;9.132;2023-03-12T03:06:48;4.60;;;2.60;;
23060;SDS011;11698;47.690;9.132;2023-03-12T03:09:14;4.87;;;2.87;;
23060;SDS011;11698;47.690;9.132;2023-03-12T03:11:40;4.43;;;2.47;;
23060;SDS011;11698;47.690;9.132;2023-03-12T03:14:06;5.13;;;2.50;;
23060;SDS011;11698;47.690;9.132;2023-03-12T03:16:32;3.17;;;2.30;;
23060;SDS011;11698;47.690;9.132;2023-03-12T03:18:59;5.22;;;2.20;;
23060;SDS011;11698;47.690;9.132;2023-03-12T03:21:24;3.45;;;2.35;;
23060;SDS011;11698;47.690;9.132;2023-03-12T03:23:50;4.03;;;2.65;;
23060;SDS011;11698;47.690;9.132;2023-03-12T03:26:18;3.67;;;2.47;;
23060;SDS011;11698;47.690;9.132;2023-03-12T03:28:44;2.35;;;2.15;;
23060;SDS011;11698;47.690;9.132;2023-03-12T03:31:11;2.72;;;2.40;;
23060;SDS011;11698;47.690;9.132;2023-03-12T03:33:37;4.35;;;2.58;;
23060;SDS011;11698;47.690;9.132;2023-03-12T03:36:04;3.63;;;2.65;;
23060;SDS011;11698;47.690;9.132;2023-03-12T03:38:31;3.10;;;2.65;;
23060;SDS011;11698;47.690;9.132;2023-03-12T03:40:58;3.30;;;2.50;;
23060;SDS011;11698;47.690;9.132;2023-03-12T03:43:24;3.25;;;2.47;;
23060;SDS011;11698;47.690;9.132;2023-03-12T03:46:01;3.50;;;2.55;;
23060;SDS011;11698;47.690;9.132;2023-03-12T03:48:27;3.50;;;2.50;;
23060;SDS011;11698;47.690;9.132;2023-03-12T03:50:53;3.53;;;2.40;;
23060;SDS011;11698;47.690;9.132;2023-03-12T03:53:19;4.10;;;2.60;;
23060;SDS011;11698;47.690;9.132;2023-03-12T03:55:45;3.47;;;2.70;;
23060;SDS011;11698;47.690;9.132;2023-03-12T03:58:12;4.43;;;2.90;;
23060;SDS011;11698;47.690;9.132;2023-03-12T04:00:38;3.00;;;2.60;;
23060;SDS011;11698;47.690;9.132;2023-03-12T04:03:04;4.88;;;2.97;;
23060;SDS011;11698;47.690;9.132;2023-03-12T04:05:30;3.20;;;2.60;;
23060;SDS011;11698;47.690;9.132;2023-03-12T04:07:56;4.32;;;2.63;;
23060;SDS011;11698;47.690;9.132;2023-03-12T04:10:30;4.30;;;2.80;;
23060;SDS011;11698;47.690;9.132;2023-03-12T04:12:56;5.77;;;2.60;;
23060;SDS011;11698;47.690;9.132;2023-03-12T04:15:22;3.47;;;2.60;;
23060;SDS011;11698;47.690;9.132;2023-03-12T04:17:48;3.88;;;2.45;;
23060;SDS011;11698;47.690;9.132;2023-03-12T04:20:14;4.57;;;3.08;;
23060;SDS011;11698;47.690;9.132;2023-03-12T04:22:40;3.78;;;2.80;;
23060;SDS011;11698;47.690;9.132;2023-03-12T04:25:06;3.58;;;2.97;;
23060;SDS011;11698;47.690;9.132;2023-03-12T04:27:33;2.88;;;2.22;;
23060;SDS011;11698;47.690;9.132;2023-03-12T04:29:59;3.97;;;2.70;;
23060;SDS011;11698;47.690;9.132;2023-03-12T04:32:25;3.22;;;2.35;;
23060;SDS011;11698;47.690;9.132;2023-03-12T04:34:51;4.53;;;2.60;;
23060;SDS011;11698;47.690;9.132;2023-03-12T04:37:18;3.15;;;2.80;;
23060;SDS011;11698;47.690;9.132;2023-03-12T04:39:44;4.50;;;2.70;;
23060;SDS011;11698;47.690;9.132;2023-03-12T04:42:10;3.97;;;2.90;;
23060;SDS011;11698;47.690;9.132;2023-03-12T04:44:36;3.47;;;2.40;;
23060;SDS011;11698;47.690;9.132;2023-03-12T04:47:03;3.67;;;2.35;;
23060;SDS011;11698;47.690;9.132;2023-03-12T04:49:29;3.72;;;2.50;;
23060;SDS011;11698;47.690;9.132;2023-03-12T04:51:55;3.10;;;2.50;;
23060;SDS011;11698;47.690;9.132;2023-03-12T04:54:21;3.72;;;2.53;;
23060;SDS011;11698;47.690;9.132;2023-03-12T04:56:48;3.23;;;2.60;;
23060;SDS011;11698;47.690;9.132;2023-03-12T04:59:14;3.80;;;2.50;;
23060;SDS011;11698;47.690;9.132;2023-03-12T05:01:40;3.78;;;2.75;;
23060;SDS011;11698;47.690;9.132;2023-03-12T05:04:06;3.65;;;2.50;;
23060;SDS011;11698;47.690;9.132;2023-03-12T05:06:32;4.53;;;2.85;;
23060;SDS011;11698;47.690;9.132;2023-03-12T05:08:58;5.28;;;3.03;;
23060;SDS011;11698;47.690;9.132;2023-03-12T05:11:24;4.15;;;2.75;;
23060;SDS011;11698;47.690;9.132;2023-03-12T05:13:51;5.10;;;2.67;;
23060;SDS011;11698;47.690;9.132;2023-03-12T05:16:17;3.53;;;2.67;;
23060;SDS011;11698;47.690;9.132;2023-03-12T05:18:43;4.60;;;2.72;;
23060;SDS011;11698;47.690;9.132;2023-03-12T05:21:13;4.00;;;2.88;;
23060;SDS011;11698;47.690;9.132;2023-03-12T05:23:40;3.78;;;3.15;;
23060;SDS011;11698;47.690;9.132;2023-03-12T05:26:14;3.78;;;2.75;;
23060;SDS011;11698;47.690;9.132;2023-03-12T05:28:40;4.20;;;2.75;;
23060;SDS011;11698;47.690;9.132;2023-03-12T05:31:07;4.80;;;3.13;;
23060;SDS011;11698;47.690;9.132;2023-03-12T05:33:34;3.92;;;3.10;;
23060;SDS011;11698;47.690;9.132;2023-03-12T05:36:00;3.22;;;2.50;;
23060;SDS011;11698;47.690;9.132;2023-03-12T05:38:26;3.67;;;2.85;;
23060;SDS011;11698;47.690;9.132;2023-03-12T05:40:53;5.40;;;3.38;;
23060;SDS011;11698;47.690;9.132;2023-03-12T05:43:20;4.40;;;2.97;;
23060;SDS011;11698;47.690;9.132;2023-03-12T05:45:46;3.20;;;2.90;;
23060;SDS011;11698;47.690;9.132;2023-03-12T05:48:12;3.55;;;2.75;;
23060;SDS011;11698;47.690;9.132;2023-03-12T05:50:38;4.35;;;3.05;;
23060;SDS011;11698;47.690;9.132;2023-03-12T05:53:04;4.30;;;2.90;;
23060;SDS011;11698;47.690;9.132;2023-03-12T05:55:33;4.28;;;3.10;;
23060;SDS011;11698;47.690;9.132;2023-03-12T05:58:00;3.97;;;2.77;;
23060;SDS011;11698;47.690;9.132;2023-03-12T06:00:26;4.77;;;2.93;;
23060;SDS011;11698;47.690;9.132;2023-03-12T06:02:52;5.47;;;3.17;;
23060;SDS011;11698;47.690;9.132;2023-03-12T06:05:18;4.28;;;3.17;;
23060;SDS011;11698;47.690;9.132;2023-03-12T06:07:44;4.28;;;2.78;;
23060;SDS011;11698;47.690;9.132;2023-03-12T06:10:10;4.47;;;3.08;;
23060;SDS011;11698;47.690;9.132;2023-03-12T06:12:36;4.50;;;3.10;;
23060;SDS011;11698;47.690;9.132;2023-03-12T06:15:02;4.13;;;3.20;;
23060;SDS011;11698;47.690;9.132;2023-03-12T06:17:29;4.18;;;2.95;;
23060;SDS011;11698;47.690;9.132;2023-03-12T06:19:56;4.35;;;2.83;;
23060;SDS011;11698;47.690;9.132;2023-03-12T06:22:22;5.18;;;3.33;;
23060;SDS011;11698;47.690;9.132;2023-03-12T06:24:48;5.50;;;3.00;;
23060;SDS011;11698;47.690;9.132;2023-03-12T06:27:14;4.72;;;3.25;;
23060;SDS011;11698;47.690;9.132;2023-03-12T06:29:40;4.88;;;3.50;;
23060;SDS011;11698;47.690;9.132;2023-03-12T06:32:06;4.32;;;3.15;;
23060;SDS011;11698;47.690;9.132;2023-03-12T06:34:32;5.43;;;3.40;;
23060;SDS011;11698;47.690;9.132;2023-03-12T06:36:58;5.03;;;3.00;;
23060;SDS011;11698;47.690;9.132;2023-03-12T06:39:25;5.03;;;3.23;;
23060;SDS011;11698;47.690;9.132;2023-03-12T06:41:51;5.72;;;3.08;;
23060;SDS011;11698;47.690;9.132;2023-03-12T06:44:17;4.20;;;2.70;;
23060;SDS011;11698;47.690;9.132;2023-03-12T06:46:43;3.85;;;2.70;;
23060;SDS011;11698;47.690;9.132;2023-03-12T06:49:09;5.88;;;3.40;;
23060;SDS011;11698;47.690;9.132;2023-03-12T06:51:36;4.25;;;2.80;;
23060;SDS011;11698;47.690;9.132;2023-03-12T06:54:02;5.35;;;3.20;;
23060;SDS011;11698;47.690;9.132;2023-03-12T06:56:29;5.57;;;3.50;;
23060;SDS011;11698;47.690;9.132;2023-03-12T06:58:55;5.05;;;3.30;;
23060;SDS011;11698;47.690;9.132;2023-03-12T07:01:21;4.97;;;3.57;;
23060;SDS011;11698;47.690;9.132;2023-03-12T07:03:47;4.60;;;3.00;;
23060;SDS011;11698;47.690;9.132;2023-03-12T07:06:14;4.68;;;3.33;;
23060;SDS011;11698;47.690;9.132;2023-03-12T07:08:40;4.53;;;3.20;;
23060;SDS011;11698;47.690;9.132;2023-03-12T07:11:06;6.78;;;3.60;;
23060;SDS011;11698;47.690;9.132;2023-03-12T07:13:33;4.20;;;3.20;;
23060;SDS011;11698;47.690;9.132;2023-03-12T07:15:59;4.20;;;3.10;;
23060;SDS011;11698;47.690;9.132;2023-03-12T07:18:25;4.25;;;3.13;;
23060;SDS011;11698;47.690;9.132;2023-03-12T07:20:51;6.93;;;3.70;;
23060;SDS011;11698;47.690;9.132;2023-03-12T07:23:17;5.10;;;3.50;;
23060;SDS011;11698;47.690;9.132;2023-03-12T07:25:43;5.10;;;3.38;;
23060;SDS011;11698;47.690;9.132;2023-03-12T07:28:10;6.32;;;3.30;;
23060;SDS011;11698;47.690;9.132;2023-03-12T07:30:36;5.07;;;3.50;;
23060;SDS011;11698;47.690;9.132;2023-03-12T07:33:07;30.08;;;17.88;;
23060;SDS011;11698;47.690;9.132;2023-03-12T07:35:33;6.70;;;4.20;;
23060;SDS011;11698;47.690;9.132;2023-03-12T07:37:59;5.78;;;3.70;;
23060;SDS011;11698;47.690;9.132;2023-03-12T07:40:25;4.80;;;3.40;;
23060;SDS011;11698;47.690;9.132;2023-03-12T07:42:51;4.88;;;3.45;;
23060;SDS011;11698;47.690;9.132;2023-03-12T07:45:18;6.50;;;3.37;;
23060;SDS011;11698;47.690;9.132;2023-03-12T07:47:44;5.68;;;3.90;;
23060;SDS011;11698;47.690;9.132;2023-03-12T07:50:10;5.28;;;3.67;;
23060;SDS011;11698;47.690;9.132;2023-03-12T07:52:36;6.05;;;3.70;;
23060;SDS011;11698;47.690;9.132;2023-03-12T07:55:03;5.60;;;3.88;;
23060;SDS011;11698;47.690;9.132;2023-03-12T07:57:29;6.70;;;4.40;;
23060;SDS011;11698;47.690;9.132;2023-03-12T07:59:55;4.90;;;3.60;;
23060;SDS011;11698;47.690;9.132;2023-03-12T08:02:21;5.07;;;3.67;;
23060;SDS011;11698;47.690;9.132;2023-03-12T08:04:47;6.65;;;3.90;;
23060;SDS011;11698;47.690;9.132;2023-03-12T08:07:13;4.57;;;3.50;;
23060;SDS011;11698;47.690;9.132;2023-03-12T08:09:39;6.18;;;3.70;;
23060;SDS011;11698;47.690;9.132;2023-03-12T08:12:06;6.43;;;4.20;;
23060;SDS011;11698;47.690;9.132;2023-03-12T08:14:32;6.53;;;4.57;;
23060;SDS011;11698;47.690;9.132;2023-03-12T08:16:59;6.53;;;4.15;;
23060;SDS011;11698;47.690;9.132;2023-03-12T08:19:26;5.05;;;3.42;;
23060;SDS011;11698;47.690;9.132;2023-03-12T08:21:52;4.78;;;3.35;;
23060;SDS011;11698;47.690;9.132;2023-03-12T08:24:19;6.18;;;4.20;;
23060;SDS011;11698;47.690;9.132;2023-03-12T08:26:45;6.38;;;4.53;;
23060;SDS011;11698;47.690;9.132;2023-03-12T08:29:11;4.27;;;3.50;;
23060;SDS011;11698;47.690;9.132;2023-03-12T08:31:38;6.77;;;4.53;;
23060;SDS011;11698;47.690;9.132;2023-03-12T08:34:04;5.10;;;3.80;;
23060;SDS011;11698;47.690;9.132;2023-03-12T08:36:30;5.10;;;3.42;;
23060;SDS011;11698;47.690;9.132;2023-03-12T08:38:56;5.20;;;3.45;;
23060;SDS011;11698;47.690;9.132;2023-03-12T08:41:22;3.70;;;3.03;;
23060;SDS011;11698;47.690;9.132;2023-03-12T08:43:48;3.72;;;2.17;;
23060;SDS011;11698;47.690;9.132;2023-03-12T08:46:14;2.80;;;2.20;;
23060;SDS011;11698;47.690;9.132;2023-03-12T08:48:40;2.72;;;2.35;;
23060;SDS011;11698;47.690;9.132;2023-03-12T08:51:06;3.05;;;2.50;;
23060;SDS011;11698;47.690;9.132;2023-03-12T08:53:32;2.97;;;2.38;;
23060;SDS011;11698;47.690;9.132;2023-03-12T08:55:59;2.60;;;2.10;;
23060;SDS011;11698;47.690;9.132;2023-03-12T08:58:25;4.85;;;3.85;;
23060;SDS011;11698;47.690;9.132;2023-03-12T09:00:52;3.53;;;2.28;;
23060;SDS011;11698;47.690;9.132;2023-03-12T09:03:18;4.07;;;2.90;;
23060;SDS011;11698;47.690;9.132;2023-03-12T09:05:45;4.03;;;2.92;;
23060;SDS011;11698;47.690;9.132;2023-03-12T09:08:12;4.65;;;3.05;;
23060;SDS011;11698;47.690;9.132;2023-03-12T09:10:38;5.00;;;3.35;;
23060;SDS011;11698;47.690;9.132;2023-03-12T09:13:04;4.78;;;3.65;;
23060;SDS011;11698;47.690;9.132;2023-03-12T09:15:30;4.50;;;3.20;;
23060;SDS011;11698;47.690;9.132;2023-03-12T09:17:56;4.47;;;3.45;;
23060;SDS011;11698;47.690;9.132;2023-03-12T09:20:23;3.33;;;2.30;;
23060;SDS011;11698;47.690;9.132;2023-03-12T09:22:49;3.65;;;2.95;;
23060;SDS011;11698;47.690;9.132;2023-03-12T09:25:16;4.33;;;2.87;;
23060;SDS011;11698;47.690;9.132;2023-03-12T09:27:43;3.53;;;2.70;;
23060;SDS011;11698;47.690;9.132;2023-03-12T09:30:11;2.67;;;2.15;;
23060;SDS011;11698;47.690;9.132;2023-03-12T09:32:37;3.20;;;2.50;;
23060;SDS011;11698;47.690;9.132;2023-03-12T09:35:05;2.90;;;2.10;;
23060;SDS011;11698;47.690;9.132;2023-03-12T09:37:31;2.40;;;2.00;;
23060;SDS011;11698;47.690;9.132;2023-03-12T09:39:57;2.57;;;2.10;;
23060;SDS011;11698;47.690;9.132;2023-03-12T09:42:24;3.08;;;2.30;;
23060;SDS011;11698;47.690;9.132;2023-03-12T09:44:52;2.05;;;1.67;;
23060;SDS011;11698;47.690;9.132;2023-03-12T09:47:24;1.67;;;1.30;;
23060;SDS011;11698;47.690;9.132;2023-03-12T09:49:55;2.40;;;1.98;;
23060;SDS011;11698;47.690;9.132;2023-03-12T09:52:38;2.55;;;1.90;;
23060;SDS011;11698;47.690;9.132;2023-03-12T09:55:13;2.70;;;2.17;;
23060;SDS011;11698;47.690;9.132;2023-03-12T09:57:40;3.75;;;2.20;;
23060;SDS011;11698;47.690;9.132;2023-03-12T10:00:10;3.45;;;2.20;;
23060;SDS011;11698;47.690;9.132;2023-03-12T10:03:01;2.95;;;2.13;;
23060;SDS011;11698;47.690;9.132;2023-03-12T10:05:41;2.22;;;1.85;;
23060;SDS011;11698;47.690;9.132;2023-03-12T10:26:31;2.10;;;1.90;;
23060;SDS011;11698;47.690;9.132;2023-03-12T10:29:00;2.75;;;1.80;;
23060;SDS011;11698;47.690;9.132;2023-03-12T10:31:50;1.88;;;1.67;;
23060;SDS011;11698;47.690;9.132;2023-03-12T10:34:22;2.95;;;1.80;;
23060;SDS011;11698;47.690;9.132;2023-03-12T10:36:50;3.20;;;1.90;;
23060;SDS011;11698;47.690;9.132;2023-03-12T10:39:17;2.67;;;1.92;;
23060;SDS011;11698;47.690;9.132;2023-03-12T10:41:45;3.22;;;2.17;;
23060;SDS011;11698;47.690;9.132;2023-03-12T10:44:16;2.53;;;1.90;;
23060;SDS011;11698;47.690;9.132;2023-03-12T10:49:25;2.25;;;1.83;;
23060;SDS011;11698;47.690;9.132;2023-03-12T10:51:52;1.70;;;1.60;;
23060;SDS011;11698;47.690;9.132;2023-03-12T10:54:20;2.85;;;1.52;;
23060;SDS011;11698;47.690;9.132;2023-03-12T10:56:47;1.52;;;1.30;;
23060;SDS011;11698;47.690;9.132;2023-03-12T10:59:19;1.38;;;1.23;;
23060;SDS011;11698;47.690;9.132;2023-03-12T11:01:49;0.98;;;0.80;;
23060;SDS011;11698;47.690;9.132;2023-03-12T11:06:42;1.05;;;0.90;;
23060;SDS011;11698;47.690;9.132;2023-03-12T11:09:27;0.60;;;0.60;;
23060;SDS011;11698;47.690;9.132;2023-03-12T11:11:52;1.13;;;0.93;;
23060;SDS011;11698;47.690;9.132;2023-03-12T11:14:20;1.75;;;1.30;;
23060;SDS011;11698;47.690;9.132;2023-03-12T11:16:47;2.03;;;1.35;;
23060;SDS011;11698;47.690;9.132;2023-03-12T11:19:14;1.83;;;1.23;;
23060;SDS011;11698;47.690;9.132;2023-03-12T11:21:57;1.80;;;1.30;;
23060;SDS011;11698;47.690;9.132;2023-03-12T11:24:23;1.10;;;0.90;;
23060;SDS011;11698;47.690;9.132;2023-03-12T11:26:55;1.10;;;0.80;;
23060;SDS011;11698;47.690;9.132;2023-03-12T11:29:30;0.88;;;0.80;;
23060;SDS011;11698;47.690;9.132;2023-03-12T11:32:02;2.40;;;1.70;;
23060;SDS011;11698;47.690;9.132;2023-03-12T11:34:30;17.65;;;9.32;;
23060;SDS011;11698;47.690;9.132;2023-03-12T11:52:58;0.85;;;0.70;;
23060;SDS011;11698;47.690;9.132;2023-03-12T11:58:34;1.80;;;1.00;;
23060;SDS011;11698;47.690;9.132;2023-03-12T12:01:08;1.88;;;0.65;;
23060;SDS011;11698;47.690;9.132;2023-03-12T12:17:21;1.20;;;1.10;;
23060;SDS011;11698;47.690;9.132;2023-03-12T12:22:43;1.40;;;1.20;;
23060;SDS011;11698;47.690;9.132;2023-03-12T12:45:46;0.30;;;0.30;;
23060;SDS011;11698;47.690;9.132;2023-03-12T12:48:20;0.93;;;0.50;;
23060;SDS011;11698;47.690;9.132;2023-03-12T12:50:47;0.40;;;0.23;;
23060;SDS011;11698;47.690;9.132;2023-03-12T13:01:16;1.20;;;0.45;;
23060;SDS011;11698;47.690;9.132;2023-03-12T13:03:42;1.38;;;0.50;;
23060;SDS011;11698;47.690;9.132;2023-03-12T13:06:09;0.55;;;0.30;;
23060;SDS011;11698;47.690;9.132;2023-03-12T13:13:39;1.15;;;0.43;;
23060;SDS011;11698;47.690;9.132;2023-03-12T13:18:54;3.47;;;0.75;;
23060;SDS011;11698;47.690;9.132;2023-03-12T13:24:31;2.30;;;0.70;;
23060;SDS011;11698;47.690;9.132;2023-03-12T13:26:52;1.88;;;0.73;;
23060;SDS011;11698;47.690;9.132;2023-03-12T13:31:45;2.60;;;0.50;;
23060;SDS011;11698;47.690;9.132;2023-03-12T13:36:37;2.75;;;0.50;;
23060;SDS011;11698;47.690;9.132;2023-03-12T13:41:36;3.17;;;0.70;;
23060;SDS011;11698;47.690;9.132;2023-03-12T13:46:48;2.00;;;0.45;;
23060;SDS011;11698;47.690;9.132;2023-03-12T13:49:15;4.43;;;0.60;;
23060;SDS011;11698;47.690;9.132;2023-03-12T13:51:42;3.83;;;0.80;;
23060;SDS011;11698;47.690;9.132;2023-03-12T13:54:15;2.77;;;0.50;;
23060;SDS011;11698;47.690;9.132;2023-03-12T13:56:44;1.42;;;0.60;;
23060;SDS011;11698;47.690;9.132;2023-03-12T13:59:17;1.73;;;0.55;;
23060;SDS011;11698;47.690;9.132;2023-03-12T14:01:47;1.65;;;0.38;;
23060;SDS011;11698;47.690;9.132;2023-03-12T14:04:19;1.80;;;0.30;;
23060;SDS011;11698;47.690;9.132;2023-03-12T14:12:20;0.38;;;0.20;;
23060;SDS011;11698;47.690;9.132;2023-03-12T14:17:23;1.30;;;0.50;;
23060;SDS011;11698;47.690;9.132;2023-03-12T14:19:56;1.02;;;0.20;;
23060;SDS011;11698;47.690;9.132;2023-03-12T14:22:23;1.50;;;0.55;;
23060;SDS011;11698;47.690;9.132;2023-03-12T14:24:52;1.42;;;0.30;;
23060;SDS011;11698;47.690;9.132;2023-03-12T14:27:20;0.77;;;0.20;;
23060;SDS011;11698;47.690;9.132;2023-03-12T14:29:51;1.10;;;0.30;;
23060;SDS011;11698;47.690;9.132;2023-03-12T14:32:18;0.68;;;0.20;;
23060;SDS011;11698;47.690;9.132;2023-03-12T14:34:46;0.98;;;0.30;;
23060;SDS011;11698;47.690;9.132;2023-03-12T14:39:52;1.60;;;0.50;;
23060;SDS011;11698;47.690;9.132;2023-03-12T14:42:30;1.95;;;0.47;;
23060;SDS011;11698;47.690;9.132;2023-03-12T14:45:00;2.03;;;0.50;;
23060;SDS011;11698;47.690;9.132;2023-03-12T14:47:27;1.15;;;0.30;;
23060;SDS011;11698;47.690;9.132;2023-03-12T14:49:54;1.60;;;0.30;;
23060;SDS011;11698;47.690;9.132;2023-03-12T14:52:23;1.48;;;0.40;;
23060;SDS011;11698;47.690;9.132;2023-03-12T14:54:53;2.13;;;0.40;;
23060;SDS011;11698;47.690;9.132;2023-03-12T14:57:20;0.90;;;0.40;;
23060;SDS011;11698;47.690;9.132;2023-03-12T14:59:55;2.92;;;0.43;;
23060;SDS011;11698;47.690;9.132;2023-03-12T15:02:22;1.60;;;0.40;;
23060;SDS011;11698;47.690;9.132;2023-03-12T15:04:48;1.92;;;0.52;;
23060;SDS011;11698;47.690;9.132;2023-03-12T15:07:16;1.90;;;0.60;;
23060;SDS011;11698;47.690;9.132;2023-03-12T15:09:44;1.42;;;0.30;;
23060;SDS011;11698;47.690;9.132;2023-03-12T15:12:21;1.58;;;0.40;;
23060;SDS011;11698;47.690;9.132;2023-03-12T15:14:48;4.40;;;0.82;;
23060;SDS011;11698;47.690;9.132;2023-03-12T15:17:16;0.90;;;0.30;;
23060;SDS011;11698;47.690;9.132;2023-03-12T15:19:43;2.60;;;0.50;;
23060;SDS011;11698;47.690;9.132;2023-03-12T15:22:14;2.33;;;0.40;;
23060;SDS011;11698;47.690;9.132;2023-03-12T15:24:40;1.88;;;0.65;;
23060;SDS011;11698;47.690;9.132;2023-03-12T15:27:21;2.10;;;0.68;;
23060;SDS011;11698;47.690;9.132;2023-03-12T15:29:54;1.70;;;0.60;;
23060;SDS011;11698;47.690;9.132;2023-03-12T15:32:21;1.58;;;0.50;;
23060;SDS011;11698;47.690;9.132;2023-03-12T15:34:51;2.47;;;1.00;;
23060;SDS011;11698;47.690;9.132;2023-03-12T15:37:19;1.80;;;0.40;;
23060;SDS011;11698;47.690;9.132;2023-03-12T15:39:47;2.30;;;0.50;;
23060;SDS011;11698;47.690;9.132;2023-03-12T15:42:17;4.18;;;0.70;;
23060;SDS011;11698;47.690;9.132;2023-03-12T15:47:11;3.17;;;0.50;;
23060;SDS011;11698;47.690;9.132;2023-03-12T15:49:38;2.15;;;0.50;;
23060;SDS011;11698;47.690;9.132;2023-03-12T15:54:37;0.93;;;0.30;;
23060;SDS011;11698;47.690;9.132;2023-03-12T15:57:14;2.20;;;0.50;;
23060;SDS011;11698;47.690;9.132;2023-03-12T15:59:43;1.45;;;0.60;;
23060;SDS011;11698;47.690;9.132;2023-03-12T16:02:10;1.00;;;0.40;;
23060;SDS011;11698;47.690;9.132;2023-03-12T16:04:37;1.73;;;0.40;;
23060;SDS011;11698;47.690;9.132;2023-03-12T16:07:04;1.80;;;0.50;;
23060;SDS011;11698;47.690;9.132;2023-03-12T16:09:33;1.92;;;0.60;;
23060;SDS011;11698;47.690;9.132;2023-03-12T16:11:59;4.00;;;0.52;;
23060;SDS011;11698;47.690;9.132;2023-03-12T16:14:26;1.67;;;0.57;;
23060;SDS011;11698;47.690;9.132;2023-03-12T16:16:54;2.30;;;0.40;;
23060;SDS011;11698;47.690;9.132;2023-03-12T16:19:21;1.50;;;0.40;;
23060;SDS011;11698;47.690;9.132;2023-03-12T16:21:47;1.40;;;0.60;;
23060;SDS011;11698;47.690;9.132;2023-03-12T16:24:14;0.57;;;0.35;;
23060;SDS011;11698;47.690;9.132;2023-03-12T16:26:47;2.58;;;0.50;;
23060;SDS011;11698;47.690;9.132;2023-03-12T16:29:15;0.32;;;0.30;;
23060;SDS011;11698;47.690;9.132;2023-03-12T16:31:42;3.80;;;0.60;;
23060;SDS011;11698;47.690;9.132;2023-03-12T16:34:11;2.60;;;0.63;;
23060;SDS011;11698;47.690;9.132;2023-03-12T16:36:37;1.30;;;0.45;;
23060;SDS011;11698;47.690;9.132;2023-03-12T16:39:03;2.45;;;0.50;;
23060;SDS011;11698;47.690;9.132;2023-03-12T16:41:29;0.85;;;0.50;;
23060;SDS011;11698;47.690;9.132;2023-03-12T16:43:56;2.38;;;0.70;;
23060;SDS011;11698;47.690;9.132;2023-03-12T16:46:23;1.50;;;0.53;;
23060;SDS011;11698;47.690;9.132;2023-03-12T16:48:51;2.17;;;0.50;;
23060;SDS011;11698;47.690;9.132;2023-03-12T16:51:17;1.33;;;0.60;;
23060;SDS011;11698;47.690;9.132;2023-03-12T16:53:44;4.37;;;0.70;;
23060;SDS011;11698;47.690;9.132;2023-03-12T16:56:19;2.37;;;0.60;;
23060;SDS011;11698;47.690;9.132;2023-03-12T16:58:46;3.80;;;0.83;;
23060;SDS011;11698;47.690;9.132;2023-03-12T17:01:14;2.40;;;0.60;;